CheckWX is a tool to help pilots better visualize weather data.  It is not intended as a substitute for an official pre-flight weather briefing.

17:05:27 UTC

KMEZ METAR
Mena Intermountain Municipal Airport
Mena, Arkansas, USA
Current

50 mins ago

KMEZ 171615Z AUTO 00000KT 10SM CLR 11/01 A3008 RMK AO2
Observed
Nov-17 @ 16:15 UTC
Visibility
10 SM
Flight Rules
VFR
Cloud Levels
  • Clear skies
Temperature
11°C / 52°F
Dewpoint
C / 34°F
Humidity
50%
Altimeter
30.08" Hg
Pressure
1018.62 hPa
Previous

1 hour ago

KMEZ 171555Z AUTO 27003KT 10SM CLR 09/01 A3009 RMK AO2
Observed
Nov-17 @ 15:55 UTC
Wind
  • 270° at 3 KTS
Visibility
10 SM
Flight Rules
VFR
Cloud Levels
  • Clear skies
Temperature
C / 48°F
Dewpoint
C / 34°F
Humidity
58%
Altimeter
30.09" Hg
Pressure
1018.92 hPa
Previous

2 hours ago

KMEZ 171535Z AUTO 00000KT 10SM CLR 07/02 A3009 RMK AO2
Observed
Nov-17 @ 15:35 UTC
Visibility
10 SM
Flight Rules
VFR
Cloud Levels
  • Clear skies
Temperature
C / 45°F
Dewpoint
C / 36°F
Humidity
71%
Altimeter
30.09" Hg
Pressure
1018.92 hPa